createdAt,value
2023-03-26T00:00:43.691Z,100693.06
2023-03-26T00:03:14.915Z,100675.34
2023-03-26T00:05:41.398Z,100693.06
2023-03-26T00:08:08.924Z,100699.44
2023-03-26T00:10:37.567Z,100702.78
2023-03-26T00:13:05.682Z,100707.66
2023-03-26T00:15:33.756Z,100707.81
2023-03-26T00:18:03.329Z,100700.94
2023-03-26T00:20:32.749Z,100711.47
2023-03-26T00:23:02.596Z,100706.97
2023-03-26T00:25:29.065Z,100702.78
2023-03-26T00:27:55.598Z,100715.34
2023-03-26T00:30:22.256Z,100715.84
2023-03-26T00:32:53.681Z,100708.81
2023-03-26T00:35:22.422Z,100700.25
2023-03-26T00:37:51.415Z,100709.31
2023-03-26T00:40:17.881Z,100713.16
2023-03-26T00:42:44.249Z,100713.34
2023-03-26T00:45:11.193Z,100721.38
2023-03-26T00:47:39.992Z,100700.56
2023-03-26T00:50:07.651Z,100729.25
2023-03-26T00:52:36.124Z,100727.56
2023-03-26T00:55:03.020Z,100718.69
2023-03-26T00:59:59.409Z,100728.38
2023-03-26T01:02:27.333Z,100716.97
2023-03-26T01:05:02.894Z,100737.41
2023-03-26T01:07:29.761Z,100731.06
2023-03-26T01:09:59.257Z,100728.56
2023-03-26T01:12:29.232Z,100731.75
2023-03-26T01:15:00.758Z,100724.22
2023-03-26T01:17:34.150Z,100729.56
2023-03-26T01:20:13.484Z,100732.56
2023-03-26T01:22:45.821Z,100711.66
2023-03-26T01:25:12.485Z,100720.19
2023-03-26T01:27:47.749Z,100722.03
2023-03-26T01:30:33.553Z,100722.38
2023-03-26T01:33:03.476Z,100724.06
2023-03-26T01:35:44.354Z,100716.84
2023-03-26T01:38:29.716Z,100717.34
2023-03-26T01:41:11.778Z,100710.81
2023-03-26T01:43:51.243Z,100710.16
2023-03-26T01:46:19.394Z,100716.19
2023-03-26T01:48:47.138Z,100712.50
2023-03-26T01:51:25.396Z,100712.69
2023-03-26T01:53:52.723Z,100709.66
2023-03-26T01:56:29.541Z,100706.66
2023-03-26T01:59:33.514Z,100708.66
2023-03-26T02:02:15.796Z,100705.63
2023-03-26T02:05:04.653Z,100681.16
2023-03-26T02:07:41.105Z,100705.97
2023-03-26T02:10:13.881Z,100691.06
2023-03-26T02:12:42.749Z,100674.16
2023-03-26T02:15:11.130Z,100699.25
2023-03-26T02:17:40.381Z,100697.94
2023-03-26T02:20:10.484Z,100688.19
2023-03-26T02:22:41.630Z,100660.06
2023-03-26T02:25:09.766Z,100699.25
2023-03-26T02:27:37.092Z,100702.59
2023-03-26T02:30:06.618Z,100697.25
2023-03-26T02:32:33.151Z,100699.88
2023-03-26T02:34:59.846Z,100701.25
2023-03-26T02:37:26.276Z,100685.03
2023-03-26T02:39:52.796Z,100677.09
2023-03-26T02:42:19.289Z,100689.69
2023-03-26T02:44:46.064Z,100666.06
2023-03-26T02:47:12.398Z,100691.53
2023-03-26T02:49:38.786Z,100675.25
2023-03-26T02:52:06.670Z,100697.53
2023-03-26T02:54:34.999Z,100697.19
2023-03-26T02:57:01.617Z,100702.19
2023-03-26T02:59:28.075Z,100685.47
2023-03-26T03:01:54.633Z,100689.16
2023-03-26T03:04:21.837Z,100692.31
2023-03-26T03:06:52.883Z,100680.78
2023-03-26T03:09:20.024Z,100676.53
2023-03-26T03:11:46.468Z,100661.63
2023-03-26T03:14:12.898Z,100670.84
2023-03-26T03:16:39.385Z,100671.69
2023-03-26T03:19:06.113Z,100665.31
2023-03-26T03:21:32.576Z,100673.69
2023-03-26T03:23:59.776Z,100660.94
2023-03-26T03:26:27.751Z,100674.66
2023-03-26T03:28:56.536Z,100640.50
2023-03-26T03:31:27.402Z,100666.69
2023-03-26T03:33:53.950Z,100659.00
2023-03-26T03:36:23.246Z,100633.88
2023-03-26T03:38:50.777Z,100655.63
2023-03-26T03:41:18.512Z,100639.84
2023-03-26T03:43:45.651Z,100652.91
2023-03-26T03:46:12.193Z,100650.97
2023-03-26T03:48:39.112Z,100653.00
2023-03-26T03:51:06.284Z,100647.34
2023-03-26T03:53:36.908Z,100649.69
2023-03-26T03:56:04.349Z,100646.28
2023-03-26T03:58:31.092Z,100649.66
2023-03-26T04:01:00.884Z,100643.09
2023-03-26T04:03:33.153Z,100639.13
2023-03-26T04:06:00.649Z,100649.59
2023-03-26T04:08:27.099Z,100651.00
2023-03-26T04:10:53.571Z,100646.00
2023-03-26T04:13:20.083Z,100637.28
2023-03-26T04:15:47.047Z,100646.81
2023-03-26T04:18:13.552Z,100636.13
2023-03-26T04:20:46.312Z,100624.59
2023-03-26T04:23:14.296Z,100644.50
2023-03-26T04:25:48.481Z,100633.97
2023-03-26T04:28:28.744Z,100638.41
2023-03-26T04:30:57.117Z,100609.06
2023-03-26T04:33:25.016Z,100633.38
2023-03-26T04:35:51.717Z,100607.44
2023-03-26T04:38:18.587Z,100614.81
2023-03-26T04:40:47.445Z,100623.47
2023-03-26T04:43:18.884Z,100611.03
2023-03-26T04:45:48.167Z,100605.16
2023-03-26T04:48:14.683Z,100625.75
2023-03-26T04:50:45.417Z,100624.25
2023-03-26T04:53:15.184Z,100598.31
2023-03-26T04:55:46.959Z,100603.97
2023-03-26T04:58:14.016Z,100630.72
2023-03-26T05:00:41.958Z,100630.94
2023-03-26T05:03:12.131Z,100633.78
2023-03-26T05:05:39.328Z,100639.69
2023-03-26T05:08:06.075Z,100645.06
2023-03-26T05:10:32.606Z,100629.75
2023-03-26T05:12:59.113Z,100639.06
2023-03-26T05:15:25.674Z,100640.00
2023-03-26T05:17:52.168Z,100635.31
2023-03-26T05:20:23.023Z,100640.56
2023-03-26T05:22:50.059Z,100640.63
2023-03-26T05:25:17.734Z,100638.94
2023-03-26T05:27:44.955Z,100632.06
2023-03-26T05:30:15.829Z,100634.44
2023-03-26T05:32:42.855Z,100632.34
2023-03-26T05:35:09.805Z,100638.31
2023-03-26T05:37:38.680Z,100631.28
2023-03-26T05:40:11.660Z,100640.41
2023-03-26T05:42:39.238Z,100641.13
2023-03-26T05:45:08.460Z,100606.19
2023-03-26T05:47:35.290Z,100634.88
2023-03-26T05:50:01.781Z,100630.38
2023-03-26T05:52:28.525Z,100641.03
2023-03-26T05:54:54.960Z,100628.25
2023-03-26T05:57:22.358Z,100606.38
2023-03-26T05:59:48.719Z,100640.16
2023-03-26T06:02:15.610Z,100640.69
2023-03-26T06:04:42.746Z,100630.00
2023-03-26T06:07:12.345Z,100635.09
2023-03-26T06:09:40.048Z,100636.13
2023-03-26T06:12:08.034Z,100622.75
2023-03-26T06:14:34.645Z,100623.94
2023-03-26T06:17:01.132Z,100622.28
2023-03-26T06:19:27.661Z,100610.94
2023-03-26T06:21:54.107Z,100606.69
2023-03-26T06:24:20.809Z,100608.44
2023-03-26T06:26:47.810Z,100606.09
2023-03-26T06:29:15.359Z,100610.19
2023-03-26T06:31:41.891Z,100608.81
2023-03-26T06:34:08.341Z,100615.66
2023-03-26T06:36:34.785Z,100617.16
2023-03-26T06:39:01.202Z,100615.88
2023-03-26T06:41:35.186Z,100615.53
2023-03-26T06:44:01.561Z,100606.09
2023-03-26T06:46:28.144Z,100609.53
2023-03-26T06:48:54.588Z,100612.03
2023-03-26T06:51:21.080Z,100612.22
2023-03-26T06:53:47.507Z,100603.84
2023-03-26T06:56:13.939Z,100600.66
2023-03-26T06:58:40.664Z,100603.84
2023-03-26T07:01:07.515Z,100605.03
2023-03-26T07:03:34.088Z,100610.53
2023-03-26T07:06:00.730Z,100611.69
2023-03-26T07:08:27.201Z,100606.00
2023-03-26T07:10:53.749Z,100593.47
2023-03-26T07:13:20.403Z,100592.28
2023-03-26T07:15:49.072Z,100588.94
2023-03-26T07:18:15.622Z,100598.66
2023-03-26T07:20:44.678Z,100584.19
2023-03-26T07:23:12.086Z,100591.94
2023-03-26T07:25:39.546Z,100589.41
2023-03-26T07:28:31.875Z,100579.13
2023-03-26T07:31:25.055Z,100576.59
2023-03-26T07:34:08.902Z,100562.22
2023-03-26T07:36:51.114Z,100568.56
2023-03-26T07:39:32.594Z,100573.72
2023-03-26T07:42:09.742Z,100572.31
2023-03-26T07:44:42.309Z,100566.47
2023-03-26T07:47:25.473Z,100567.44
2023-03-26T07:49:54.734Z,100565.19
2023-03-26T07:52:21.926Z,100553.31
2023-03-26T07:54:48.719Z,100561.03
2023-03-26T07:57:32.044Z,100556.38
2023-03-26T08:00:12.029Z,100552.72
2023-03-26T08:02:56.760Z,100551.25
2023-03-26T08:05:36.137Z,100552.84
2023-03-26T08:08:38.142Z,100554.59
2023-03-26T08:11:28.365Z,100519.00
2023-03-26T08:14:26.170Z,100528.09
2023-03-26T08:17:30.954Z,100535.31
2023-03-26T08:20:47.884Z,100541.66
2023-03-26T08:23:24.680Z,100537.69
2023-03-26T08:26:02.498Z,100547.47
2023-03-26T08:28:41.826Z,100548.81
2023-03-26T08:31:11.136Z,100537.09
2023-03-26T08:33:40.619Z,100543.03
2023-03-26T08:36:08.808Z,100510.22
2023-03-26T08:38:35.491Z,100532.94
2023-03-26T08:41:01.851Z,100537.66
2023-03-26T08:43:34.842Z,100539.63
2023-03-26T08:46:40.057Z,100535.16
2023-03-26T08:49:44.570Z,100543.25
2023-03-26T08:52:34.922Z,100537.00
2023-03-26T08:55:19.291Z,100557.78
2023-03-26T08:58:10.324Z,100560.63
2023-03-26T09:00:48.621Z,100559.09
2023-03-26T09:03:28.264Z,100549.03
2023-03-26T09:06:32.957Z,100553.50
2023-03-26T09:09:27.332Z,100551.72
2023-03-26T09:12:31.371Z,100528.91
2023-03-26T09:15:27.479Z,100532.50
2023-03-26T09:18:02.876Z,100533.47
2023-03-26T09:21:00.758Z,100535.44
2023-03-26T09:24:03.113Z,100544.63
2023-03-26T09:26:51.418Z,100550.88
2023-03-26T09:29:36.032Z,100535.72
2023-03-26T09:32:05.497Z,100544.44
2023-03-26T09:34:34.572Z,100547.88
2023-03-26T09:37:23.660Z,100542.81
2023-03-26T09:40:12.721Z,100536.44
2023-03-26T09:42:53.523Z,100514.59
2023-03-26T09:45:49.423Z,100557.91
2023-03-26T09:49:03.102Z,100539.97
2023-03-26T09:51:29.872Z,100534.38
2023-03-26T09:54:27.067Z,100549.63
2023-03-26T09:57:13.955Z,100529.41
2023-03-26T10:00:15.755Z,100506.50
2023-03-26T10:03:09.669Z,100552.16
2023-03-26T10:06:04.382Z,100546.69
2023-03-26T10:08:42.063Z,100553.50
2023-03-26T10:11:22.295Z,100568.72
2023-03-26T10:14:26.450Z,100551.72
2023-03-26T10:16:56.354Z,100562.63
2023-03-26T10:19:43.107Z,100550.03
2023-03-26T10:22:12.240Z,100539.69
2023-03-26T10:25:16.530Z,100551.69
2023-03-26T10:27:58.015Z,100545.34
2023-03-26T10:30:57.289Z,100517.59
2023-03-26T10:33:39.081Z,100545.34
2023-03-26T10:36:33.079Z,100551.72
2023-03-26T10:38:59.460Z,100539.50
2023-03-26T10:41:35.176Z,100545.91
2023-03-26T10:44:21.813Z,100551.94
2023-03-26T10:47:10.531Z,100542.69
2023-03-26T10:50:08.770Z,100537.47
2023-03-26T10:52:44.105Z,100544.38
2023-03-26T10:55:18.543Z,100530.72
2023-03-26T10:57:56.017Z,100537.94
2023-03-26T11:00:28.939Z,100536.81
2023-03-26T11:03:24.141Z,100550.22
2023-03-26T11:06:25.529Z,100551.78
2023-03-26T11:09:03.845Z,100532.03
2023-03-26T11:11:42.177Z,100538.56
2023-03-26T11:14:34.761Z,100529.53
2023-03-26T11:17:43.513Z,100530.00
2023-03-26T11:20:17.152Z,100519.13
2023-03-26T11:23:02.701Z,100532.03
2023-03-26T11:25:37.036Z,100509.09
2023-03-26T11:28:09.370Z,100516.72
2023-03-26T11:30:46.908Z,100531.75
2023-03-26T11:33:20.787Z,100551.56
2023-03-26T11:35:50.880Z,100556.88
2023-03-26T11:38:32.836Z,100554.94
2023-03-26T11:41:01.866Z,100572.34
2023-03-26T11:43:34.275Z,100556.72
2023-03-26T11:46:04.584Z,100541.44
2023-03-26T11:48:36.987Z,100552.53
2023-03-26T11:51:17.470Z,100554.34
2023-03-26T11:53:46.764Z,100536.75
2023-03-26T11:56:28.560Z,100547.63
2023-03-26T11:59:01.037Z,100555.66
2023-03-26T12:01:50.402Z,100562.44
2023-03-26T12:04:27.807Z,100529.84
2023-03-26T12:06:59.675Z,100519.81
2023-03-26T12:09:26.635Z,100498.34
2023-03-26T12:11:59.587Z,100487.28
2023-03-26T12:14:28.313Z,100537.44
2023-03-26T12:17:11.536Z,100542.66
2023-03-26T12:19:40.680Z,100546.81
2023-03-26T12:22:30.930Z,100548.44
2023-03-26T12:25:16.789Z,100536.81
2023-03-26T12:28:05.602Z,100539.13
2023-03-26T12:30:36.996Z,100551.06
2023-03-26T12:33:16.694Z,100559.84
2023-03-26T12:35:43.588Z,100542.13
2023-03-26T12:38:24.465Z,100545.34
2023-03-26T12:44:44.553Z,100540.91
2023-03-26T12:44:53.797Z,100532.41
2023-03-26T12:47:57.366Z,100572.53
2023-03-26T12:50:14.397Z,100541.56
2023-03-26T12:53:19.083Z,100556.84
2023-03-26T12:55:52.725Z,100555.75
2023-03-26T12:58:41.041Z,100559.66
2023-03-26T13:01:27.652Z,100546.84
2023-03-26T13:04:21.574Z,100517.38
2023-03-26T13:07:02.733Z,100505.13
2023-03-26T13:09:59.146Z,100521.72
2023-03-26T13:12:41.021Z,100519.84
2023-03-26T13:15:16.610Z,100520.22
2023-03-26T13:18:06.217Z,100529.94
2023-03-26T13:21:08.134Z,100532.78
2023-03-26T13:23:43.808Z,100551.28
2023-03-26T13:26:19.753Z,100542.38
2023-03-26T13:29:21.557Z,100541.41
2023-03-26T13:31:56.801Z,100544.44
2023-03-26T13:34:33.527Z,100560.53
2023-03-26T13:37:14.217Z,100581.75
2023-03-26T13:39:59.155Z,100570.41
2023-03-26T13:42:40.128Z,100570.03
2023-03-26T13:45:40.706Z,100602.41
2023-03-26T13:48:14.415Z,100591.19
2023-03-26T13:50:44.654Z,100594.44
2023-03-26T13:53:29.200Z,100578.03
2023-03-26T13:56:00.311Z,100585.41
2023-03-26T13:58:43.028Z,100584.06
2023-03-26T14:01:17.486Z,100593.22
2023-03-26T14:04:06.136Z,100582.22
2023-03-26T14:06:41.938Z,100621.34
2023-03-26T14:09:24.503Z,100630.78
2023-03-26T14:11:57.650Z,100640.44
2023-03-26T14:14:48.986Z,100631.31
2023-03-26T14:17:34.692Z,100644.06
2023-03-26T14:20:34.784Z,100650.44
2023-03-26T14:23:16.596Z,100667.28
2023-03-26T14:26:26.457Z,100669.38
2023-03-26T14:29:23.830Z,100686.06
2023-03-26T14:32:02.278Z,100673.22
2023-03-26T14:35:02.340Z,100674.16
2023-03-26T14:37:53.674Z,100665.09
2023-03-26T14:40:48.565Z,100668.81
2023-03-26T14:43:39.691Z,100668.00
2023-03-26T14:46:38.024Z,100668.31
2023-03-26T14:49:09.801Z,100667.66
2023-03-26T14:52:01.066Z,100673.28
2023-03-26T14:54:31.567Z,100669.53
2023-03-26T14:57:04.083Z,100653.03
2023-03-26T14:59:57.981Z,100648.00
2023-03-26T15:02:30.175Z,100623.50
2023-03-26T15:05:28.381Z,100648.47
2023-03-26T15:08:00.827Z,100648.41
2023-03-26T15:10:49.533Z,100678.25
2023-03-26T15:13:34.069Z,100687.63
2023-03-26T15:16:37.922Z,100679.25
2023-03-26T15:19:39.288Z,100693.66
2023-03-26T15:22:36.021Z,100661.69
2023-03-26T15:25:30.135Z,100680.38
2023-03-26T15:28:34.034Z,100684.91
2023-03-26T15:31:30.909Z,100685.84
2023-03-26T15:34:09.976Z,100667.31
2023-03-26T15:36:50.819Z,100687.28
2023-03-26T15:39:44.349Z,100709.16
2023-03-26T15:42:38.289Z,100708.66
2023-03-26T15:45:20.016Z,100713.50
2023-03-26T15:47:56.152Z,100736.28
2023-03-26T15:50:44.446Z,100734.41
2023-03-26T15:53:28.843Z,100737.38
2023-03-26T15:56:21.998Z,100750.13
2023-03-26T15:58:59.982Z,100742.41
2023-03-26T16:01:35.479Z,100759.31
2023-03-26T16:04:17.732Z,100739.16
2023-03-26T16:07:09.417Z,100780.63
2023-03-26T16:09:54.047Z,100774.31
2023-03-26T16:12:28.972Z,100775.16
2023-03-26T16:15:07.413Z,100795.72
2023-03-26T16:18:19.184Z,100807.09
2023-03-26T16:20:54.957Z,100803.44
2023-03-26T16:23:27.253Z,100774.66
2023-03-26T16:25:58.444Z,100791.25
2023-03-26T16:28:29.029Z,100784.34
2023-03-26T16:31:37.320Z,100792.72
2023-03-26T16:34:05.715Z,100793.34
2023-03-26T16:36:38.874Z,100799.91
2023-03-26T16:39:05.493Z,100799.28
2023-03-26T16:41:34.099Z,100817.34
2023-03-26T16:44:10.678Z,100834.16
2023-03-26T16:46:43.421Z,100845.38
2023-03-26T16:49:23.088Z,100835.25
2023-03-26T16:51:55.465Z,100826.44
2023-03-26T16:54:41.723Z,100830.72
2023-03-26T16:57:28.173Z,100850.38
2023-03-26T17:00:06.699Z,100861.44
2023-03-26T17:02:59.915Z,100870.84
2023-03-26T17:05:56.326Z,100875.47
2023-03-26T17:08:37.607Z,100884.41
2023-03-26T17:11:22.643Z,100893.00
2023-03-26T17:14:00.989Z,100900.13
2023-03-26T17:16:33.254Z,100927.88
2023-03-26T17:19:12.168Z,100924.09
2023-03-26T17:21:55.516Z,100934.63
2023-03-26T17:24:40.583Z,100936.53
2023-03-26T17:27:36.252Z,100947.66
2023-03-26T17:30:30.829Z,100953.28
2023-03-26T17:33:03.538Z,100967.09
2023-03-26T17:35:37.743Z,100959.00
2023-03-26T17:38:10.022Z,100951.56
2023-03-26T17:40:55.189Z,100970.66
2023-03-26T17:43:45.468Z,100972.66
2023-03-26T17:46:36.314Z,100974.34
2023-03-26T17:49:11.713Z,100981.56
2023-03-26T17:51:57.749Z,100985.47
2023-03-26T17:54:31.315Z,100997.16
2023-03-26T17:57:05.349Z,100997.59
2023-03-26T17:59:32.705Z,100965.03
2023-03-26T18:02:03.358Z,100999.38
2023-03-26T18:04:35.694Z,100997.28
2023-03-26T18:07:35.988Z,101014.09
2023-03-26T18:10:12.816Z,101026.34
2023-03-26T18:13:05.156Z,101035.22
2023-03-26T18:15:45.040Z,101049.97
2023-03-26T18:18:19.618Z,101051.06
2023-03-26T18:20:49.128Z,101054.50
2023-03-26T18:23:25.334Z,101041.88
2023-03-26T18:26:08.824Z,101065.47
2023-03-26T18:28:41.615Z,101069.41
2023-03-26T18:31:28.316Z,101063.75
2023-03-26T18:33:58.991Z,101071.66
2023-03-26T18:36:30.481Z,101068.81
2023-03-26T18:39:00.550Z,101080.78
2023-03-26T18:41:41.714Z,101091.03
2023-03-26T18:44:14.624Z,101080.91
2023-03-26T18:46:41.611Z,101084.00
2023-03-26T18:49:12.373Z,101099.75
2023-03-26T18:51:50.062Z,101087.09
2023-03-26T18:54:21.349Z,101083.19
2023-03-26T18:56:48.775Z,101105.91
2023-03-26T18:59:35.161Z,101088.66
2023-03-26T19:02:13.677Z,101115.91
2023-03-26T19:04:46.158Z,101089.19
2023-03-26T19:07:16.501Z,101116.13
2023-03-26T19:09:43.935Z,101101.97
2023-03-26T19:12:20.220Z,101120.94
2023-03-26T19:14:58.802Z,101129.19
2023-03-26T19:17:29.714Z,101130.91
2023-03-26T19:19:59.638Z,101132.28
2023-03-26T19:22:27.060Z,101100.28
2023-03-26T19:25:00.838Z,101120.75
2023-03-26T19:27:27.637Z,101103.63
2023-03-26T19:29:54.178Z,101114.56
2023-03-26T19:32:28.462Z,101130.00
2023-03-26T19:34:54.948Z,101125.00
2023-03-26T19:37:26.776Z,101140.63
2023-03-26T19:40:22.072Z,101142.78
2023-03-26T19:42:50.582Z,101142.66
2023-03-26T19:45:22.856Z,101153.56
2023-03-26T19:47:56.890Z,101156.88
2023-03-26T19:50:33.065Z,101174.06
2023-03-26T19:53:17.099Z,101177.34
2023-03-26T19:58:30.680Z,101177.63
2023-03-26T20:00:57.404Z,101177.59
2023-03-26T20:03:39.316Z,101175.09
2023-03-26T20:06:07.298Z,101185.59
2023-03-26T20:08:33.661Z,101196.59
2023-03-26T20:11:00.206Z,101198.91
2023-03-26T20:13:26.644Z,101200.19
2023-03-26T20:16:18.203Z,101206.75
2023-03-26T20:18:44.645Z,101199.13
2023-03-26T20:21:12.533Z,101195.94
2023-03-26T20:23:40.819Z,101164.66
2023-03-26T20:26:12.246Z,101199.53
2023-03-26T20:28:47.690Z,101186.53
2023-03-26T20:31:19.242Z,101198.59
2023-03-26T20:33:47.834Z,101189.22
2023-03-26T20:36:14.722Z,101204.56
2023-03-26T20:39:01.166Z,101208.25
2023-03-26T20:41:27.808Z,101220.28
2023-03-26T20:43:54.172Z,101227.78
2023-03-26T20:46:31.207Z,101224.66
2023-03-26T20:48:59.296Z,101231.81
2023-03-26T20:51:28.169Z,101229.91
2023-03-26T20:53:55.200Z,101234.28
2023-03-26T20:56:21.795Z,101234.44
2023-03-26T20:59:09.701Z,101241.03
2023-03-26T21:01:37.899Z,101242.41
2023-03-26T21:04:04.570Z,101245.28
2023-03-26T21:06:31.055Z,101260.34
2023-03-26T21:08:57.749Z,101263.19
2023-03-26T21:11:52.969Z,101256.41
2023-03-26T21:14:24.021Z,101264.41
2023-03-26T21:16:50.713Z,101256.28
2023-03-26T21:19:17.811Z,101238.47
2023-03-26T21:22:14.931Z,101271.59
2023-03-26T21:24:57.111Z,101269.91
2023-03-26T21:27:29.038Z,101268.16
2023-03-26T21:29:56.239Z,101270.13
2023-03-26T21:32:23.314Z,101258.16
2023-03-26T21:34:58.605Z,101279.00
2023-03-26T21:37:27.012Z,101275.38
2023-03-26T21:39:53.640Z,101292.72
2023-03-26T21:42:20.431Z,101300.06
2023-03-26T21:44:47.634Z,101284.19
2023-03-26T21:47:14.788Z,101294.09
2023-03-26T21:49:41.437Z,101308.06
2023-03-26T21:52:13.529Z,101302.78
2023-03-26T21:54:42.851Z,101325.94
2023-03-26T21:57:24.312Z,101325.72
2023-03-26T22:00:18.656Z,101330.59
2023-03-26T22:03:07.250Z,101335.06
2023-03-26T22:05:36.590Z,101332.75
2023-03-26T22:08:05.418Z,101339.50
2023-03-26T22:10:32.026Z,101295.19
2023-03-26T22:12:59.528Z,101343.66
2023-03-26T22:15:26.776Z,101342.56
2023-03-26T22:17:56.119Z,101350.56
2023-03-26T22:20:24.971Z,101358.53
2023-03-26T22:22:53.057Z,101361.22
2023-03-26T22:25:20.836Z,101369.69
2023-03-26T22:27:48.297Z,101389.63
2023-03-26T22:30:15.721Z,101378.53
2023-03-26T22:32:43.418Z,101374.25
2023-03-26T22:35:10.298Z,101372.22
2023-03-26T22:37:37.752Z,101377.53
2023-03-26T22:40:08.309Z,101336.88
2023-03-26T22:42:36.160Z,101326.56
2023-03-26T22:45:04.037Z,101380.09
2023-03-26T22:47:33.541Z,101398.50
2023-03-26T22:50:00.534Z,101405.72
2023-03-26T22:52:27.243Z,101407.00
2023-03-26T22:54:53.598Z,101402.94
2023-03-26T22:57:21.555Z,101394.25
2023-03-26T22:59:48.017Z,101409.50
2023-03-26T23:02:16.451Z,101410.25
2023-03-26T23:04:43.991Z,101413.91
2023-03-26T23:07:10.810Z,101412.84
2023-03-26T23:09:37.242Z,101414.19
2023-03-26T23:12:04.559Z,101413.84
2023-03-26T23:14:32.334Z,101396.44
2023-03-26T23:16:58.998Z,101436.34
2023-03-26T23:19:25.495Z,101442.88
2023-03-26T23:21:52.315Z,101448.44
2023-03-26T23:24:18.744Z,101450.34
2023-03-26T23:26:50.813Z,101455.66
2023-03-26T23:29:18.254Z,101456.13
2023-03-26T23:31:44.767Z,101458.38
2023-03-26T23:34:13.312Z,101469.06
2023-03-26T23:36:40.769Z,101462.69
2023-03-26T23:39:07.185Z,101461.19
2023-03-26T23:41:34.032Z,101465.81
2023-03-26T23:44:01.540Z,101465.81
2023-03-26T23:46:34.562Z,101470.50
2023-03-26T23:49:04.406Z,101465.53
2023-03-26T23:51:31.914Z,101474.84
2023-03-26T23:53:59.627Z,101480.94
2023-03-26T23:56:27.564Z,101483.19
2023-03-26T23:58:55.081Z,101484.50
